Time;durP1;ratioP1;P1;durP2;ratioP2;P2;SDS_P1;SDS_P2;PMS_P1;PMS_P2;Temp;Humidity;BMP_temperature;BMP_pressure;BME280_temperature;BME280_humidity;BME280_pressure;Samples;Min_cycle;Max_cycle;Signal;HPM_P1;HPM_P2
2023/05/26 00:02:19;;;;;;;23.70;4.97;;;;;;;12.48;49.33;101067.84;4990937;28;20046;-77
2023/05/26 00:04:46;;;;;;;26.08;4.85;;;;;;;12.47;49.43;101068.75;4991398;28;20046;-78
2023/05/26 00:07:13;;;;;;;16.40;4.13;;;;;;;12.47;49.67;101070.53;4990680;28;20047;-77
2023/05/26 00:09:40;;;;;;;21.75;4.28;;;;;;;12.46;49.65;101066.19;4991147;28;20066;-78
2023/05/26 00:12:07;;;;;;;28.40;4.40;;;;;;;12.43;49.58;101069.81;4973672;28;20053;-78
2023/05/26 00:14:33;;;;;;;18.15;4.30;;;;;;;12.43;49.68;101076.88;4990815;28;20086;-78
2023/05/26 00:17:02;;;;;;;22.23;4.47;;;;;;;12.41;49.61;101078.75;4990806;28;20145;-78
2023/05/26 00:19:31;;;;;;;20.90;4.25;;;;;;;12.40;49.50;101077.88;4973573;28;20137;-79
2023/05/26 00:21:58;;;;;;;23.02;4.65;;;;;;;12.37;49.81;101084.16;4973655;28;20073;-77
2023/05/26 00:24:24;;;;;;;16.30;4.57;;;;;;;12.36;49.82;101073.66;4973473;28;20510;-77
2023/05/26 00:26:51;;;;;;;21.88;5.00;;;;;;;12.34;49.81;101080.78;4973053;28;20078;-78
2023/05/26 00:29:18;;;;;;;24.48;4.72;;;;;;;12.32;49.72;101082.63;4990223;28;20487;-77
2023/05/26 00:31:55;;;;;;;20.92;4.13;;;;;;;12.30;49.91;101089.75;4971678;28;20577;-77
2023/05/26 00:34:22;;;;;;;21.05;5.03;;;;;;;12.27;50.03;101087.25;4971415;28;20051;-78
2023/05/26 00:36:48;;;;;;;23.00;5.00;;;;;;;12.24;50.07;101081.19;4963742;28;20087;-77
2023/05/26 00:39:15;;;;;;;23.60;5.00;;;;;;;12.21;50.14;101086.59;4976817;28;20507;-78
2023/05/26 00:41:41;;;;;;;15.32;4.40;;;;;;;12.21;50.31;101088.34;4994701;28;20069;-78
2023/05/26 00:44:08;;;;;;;20.40;4.45;;;;;;;12.20;50.31;101094.56;4994332;28;20094;-78
2023/05/26 00:46:35;;;;;;;16.17;4.13;;;;;;;12.19;50.39;101095.50;4976609;28;20050;-77
2023/05/26 00:49:01;;;;;;;19.35;4.20;;;;;;;12.17;50.67;101092.06;4977111;28;20054;-78
2023/05/26 00:51:28;;;;;;;18.85;4.38;;;;;;;12.17;50.61;101089.41;4976847;28;20046;-78
2023/05/26 00:53:55;;;;;;;22.15;4.40;;;;;;;12.16;50.52;101091.22;4976855;28;20062;-77
2023/05/26 00:56:22;;;;;;;23.85;4.78;;;;;;;12.16;50.55;101085.06;4993915;28;20050;-78
2023/05/26 00:58:49;;;;;;;21.80;4.53;;;;;;;12.15;50.55;101080.72;4993691;28;20058;-78
2023/05/26 01:01:16;;;;;;;26.73;5.25;;;;;;;12.14;50.62;101081.66;4976361;28;20062;-77
2023/05/26 01:03:44;;;;;;;25.77;5.65;;;;;;;12.11;50.67;101086.13;4993892;28;20062;-79
2023/05/26 01:06:11;;;;;;;21.10;4.55;;;;;;;12.10;50.64;101088.81;4993630;28;20554;-78
2023/05/26 01:08:38;;;;;;;21.98;3.85;;;;;;;12.06;50.65;101082.81;4993920;28;20104;-79
2023/05/26 01:11:23;;;;;;;21.48;4.03;;;;;;;12.01;51.47;101084.75;4993516;28;20492;-77
2023/05/26 01:13:56;;;;;;;19.98;3.92;;;;;;;12.02;51.48;101096.16;4993906;28;20054;-78
2023/05/26 01:16:28;;;;;;;23.20;5.00;;;;;;;12.01;50.96;101092.69;4993790;28;20050;-79
2023/05/26 01:19:13;;;;;;;20.58;4.95;;;;;;;11.97;51.80;101096.38;4976404;28;20101;-78
2023/05/26 01:21:42;;;;;;;19.08;3.95;;;;;;;11.98;50.75;101090.16;4993446;28;20057;-78
2023/05/26 01:24:19;;;;;;;18.08;4.18;;;;;;;11.91;51.88;101093.97;4993887;28;20051;-79
2023/05/26 01:27:16;;;;;;;21.25;4.45;;;;;;;11.89;51.75;101094.03;4976121;28;20053;-77
2023/05/26 01:29:44;;;;;;;22.58;4.70;;;;;;;11.90;50.83;101094.88;4993931;28;20078;-77
2023/05/26 01:32:15;;;;;;;17.35;3.80;;;;;;;11.83;51.62;101084.59;4993059;28;20785;-78
2023/05/26 01:34:42;;;;;;;17.50;4.40;;;;;;;11.82;50.93;101095.22;4976285;28;20419;-78
2023/05/26 01:37:08;;;;;;;22.58;4.35;;;;;;;11.77;51.06;101086.63;4993241;28;20137;-77
2023/05/26 01:39:35;;;;;;;20.48;4.35;;;;;;;11.73;51.05;101092.03;4993454;28;20434;-78
2023/05/26 01:42:05;;;;;;;20.40;4.68;;;;;;;11.69;51.18;101087.78;4993177;28;20047;-78
2023/05/26 01:44:50;;;;;;;17.98;4.38;;;;;;;11.65;51.98;101087.97;4993164;28;20053;-78
2023/05/26 01:47:18;;;;;;;20.90;3.85;;;;;;;11.61;51.42;101097.78;4975827;28;20113;-77
2023/05/26 01:49:47;;;;;;;19.83;4.10;;;;;;;11.57;51.84;101094.44;4993395;28;20415;-78
2023/05/26 01:52:17;;;;;;;17.92;4.43;;;;;;;11.55;51.79;101093.59;4992856;28;20086;-78
2023/05/26 01:54:50;;;;;;;20.02;4.38;;;;;;;11.49;52.58;101099.13;4975325;28;20070;-77
2023/05/26 01:57:17;;;;;;;15.52;3.85;;;;;;;11.48;51.78;101100.06;4992907;28;20105;-77
2023/05/26 01:59:43;;;;;;;19.17;4.10;;;;;;;11.46;51.82;101104.53;4993113;28;20046;-78
2023/05/26 02:02:10;;;;;;;20.88;4.72;;;;;;;11.44;51.99;101099.31;4992993;28;20054;-78
2023/05/26 02:04:37;;;;;;;19.92;4.32;;;;;;;11.41;51.95;101102.09;4992587;28;20134;-78
2023/05/26 02:07:05;;;;;;;20.55;4.35;;;;;;;11.40;51.98;101088.97;4992728;28;20056;-77
2023/05/26 02:09:32;;;;;;;18.17;4.63;;;;;;;11.39;52.01;101092.50;4992730;28;20050;-78
2023/05/26 02:11:58;;;;;;;21.25;4.68;;;;;;;11.38;51.83;101101.31;4992923;28;20054;-78
2023/05/26 02:14:25;;;;;;;18.45;4.47;;;;;;;11.37;51.97;101104.88;4975300;28;20064;-77
2023/05/26 02:16:52;;;;;;;23.95;4.78;;;;;;;11.34;52.11;101101.44;4992455;28;20101;-78
2023/05/26 02:19:19;;;;;;;29.20;5.22;;;;;;;11.33;52.21;101093.59;4992680;28;20096;-79
2023/05/26 02:21:46;;;;;;;17.20;5.05;;;;;;;11.33;52.33;101104.16;4992659;28;20086;-77
2023/05/26 02:24:12;;;;;;;18.33;4.45;;;;;;;11.31;52.37;101106.84;4992441;28;20093;-78
2023/05/26 02:26:39;;;;;;;16.38;3.35;;;;;;;11.31;52.21;101108.59;4974993;28;20530;-77
2023/05/26 02:29:06;;;;;;;18.15;4.38;;;;;;;11.30;52.19;101105.13;4992638;28;20101;-78
2023/05/26 02:31:34;;;;;;;22.25;4.35;;;;;;;11.30;52.31;101110.41;4992328;28;20043;-78
2023/05/26 02:34:10;;;;;;;24.52;5.20;;;;;;;11.29;52.25;101113.94;4992141;28;20050;-79
2023/05/26 02:36:36;;;;;;;21.25;3.80;;;;;;;11.29;52.00;101107.81;4974582;28;20046;-77
2023/05/26 02:41:53;;;;;;;17.30;3.63;;;;;;;11.26;52.08;101118.47;5015954;22;20064;-81
2023/05/26 02:44:20;;;;;;;22.38;5.05;;;;;;;11.22;52.24;101112.47;5051207;28;20053;-81
2023/05/26 02:46:46;;;;;;;22.35;5.13;;;;;;;11.21;52.42;101114.25;5049796;28;20084;-81
2023/05/26 02:49:13;;;;;;;17.30;4.40;;;;;;;11.19;52.10;101117.84;5051152;28;20526;-81
2023/05/26 02:51:39;;;;;;;21.23;4.32;;;;;;;11.16;52.64;101115.31;5051057;28;20052;-81
2023/05/26 02:54:06;;;;;;;19.33;5.03;;;;;;;11.14;52.50;101119.81;5051321;28;20044;-81
2023/05/26 02:56:33;;;;;;;23.85;4.15;;;;;;;11.12;52.44;101119.84;5050607;28;20053;-82
2023/05/26 02:58:59;;;;;;;16.70;3.78;;;;;;;11.11;52.54;101112.88;5049422;28;20055;-81
2023/05/26 03:01:27;;;;;;;21.75;4.68;;;;;;;11.07;52.63;101117.38;5050934;28;20456;-81
2023/05/26 03:03:54;;;;;;;20.13;4.75;;;;;;;11.05;52.54;101110.44;5050952;28;20060;-81
2023/05/26 03:06:20;;;;;;;21.77;4.35;;;;;;;11.03;52.56;101113.13;5050910;28;20053;-81
2023/05/26 03:08:47;;;;;;;22.27;5.20;;;;;;;11.02;52.47;101129.00;5050957;28;20080;-81
2023/05/26 03:11:14;;;;;;;22.23;5.50;;;;;;;10.99;52.60;101119.44;5050952;28;20049;-81
2023/05/26 03:13:40;;;;;;;18.70;3.97;;;;;;;10.97;52.75;101117.78;5050717;28;20045;-81
2023/05/26 03:16:07;;;;;;;19.70;3.90;;;;;;;10.94;52.74;101130.16;5049178;28;20056;-81
2023/05/26 03:18:33;;;;;;;21.02;4.38;;;;;;;10.91;52.69;101126.75;5050137;28;20099;-81
2023/05/26 03:21:02;;;;;;;15.90;3.88;;;;;;;10.89;52.70;101137.38;5050442;28;20575;-82
2023/05/26 03:23:29;;;;;;;17.33;4.20;;;;;;;10.88;52.72;101132.16;5050967;28;20064;-81
2023/05/26 03:25:55;;;;;;;18.20;4.15;;;;;;;10.85;52.67;101141.03;5050456;28;20399;-82
2023/05/26 03:28:22;;;;;;;17.98;4.05;;;;;;;10.83;52.76;101134.94;5050686;28;20107;-81
2023/05/26 03:30:49;;;;;;;20.75;4.20;;;;;;;10.81;52.89;101139.44;5050521;28;20106;-81
2023/05/26 03:33:16;;;;;;;25.67;4.90;;;;;;;10.78;53.03;101132.50;5050528;28;20053;-81
2023/05/26 03:35:42;;;;;;;21.60;4.50;;;;;;;10.77;53.07;101143.09;5049047;28;20107;-81
2023/05/26 03:38:09;;;;;;;20.92;4.50;;;;;;;10.74;53.07;101151.09;5050578;28;20557;-81
2023/05/26 03:40:35;;;;;;;22.95;4.28;;;;;;;10.73;53.19;101144.94;5049142;28;20452;-81
2023/05/26 03:43:02;;;;;;;20.40;4.78;;;;;;;10.73;53.39;101149.38;5050550;28;20080;-81
2023/05/26 03:45:29;;;;;;;29.20;4.82;;;;;;;10.72;53.49;101143.22;5050380;28;20049;-81
2023/05/26 03:47:55;;;;;;;29.05;5.45;;;;;;;10.71;53.53;101138.88;5050003;28;20087;-81
2023/05/26 03:50:22;;;;;;;17.02;4.53;;;;;;;10.72;53.47;101137.13;5050532;28;20053;-81
2023/05/26 03:52:49;;;;;;;24.63;4.95;;;;;;;10.72;53.64;101140.59;5050200;28;20080;-81
2023/05/26 03:55:17;;;;;;;23.90;4.07;;;;;;;10.72;53.61;101135.34;5050353;28;20134;-81
2023/05/26 03:57:44;;;;;;;26.20;4.85;;;;;;;10.71;53.62;101133.63;5049902;28;20056;-81
2023/05/26 04:00:11;;;;;;;25.27;4.25;;;;;;;10.72;53.73;101142.38;5050391;28;20115;-81
2023/05/26 04:02:38;;;;;;;26.40;4.80;;;;;;;10.69;53.59;101138.06;5050182;28;20045;-81
2023/05/26 04:05:06;;;;;;;25.25;5.13;;;;;;;10.69;53.84;101143.34;5050359;28;20088;-82
2023/05/26 04:07:33;;;;;;;22.00;5.07;;;;;;;10.68;53.87;101144.25;5050033;28;20422;-81
2023/05/26 04:10:00;;;;;;;19.98;5.00;;;;;;;10.66;53.96;101139.03;5050378;28;20075;-81
2023/05/26 04:12:26;;;;;;;21.17;5.35;;;;;;;10.64;53.80;101140.88;5052648;28;20045;-81
2023/05/26 04:14:53;;;;;;;19.33;4.50;;;;;;;10.63;54.13;101146.19;5054027;28;20183;-81
2023/05/26 04:17:19;;;;;;;14.10;4.63;;;;;;;10.62;54.00;101153.22;5053806;28;20510;-81
2023/05/26 04:19:46;;;;;;;21.77;4.57;;;;;;;10.61;54.01;101142.78;5054346;28;20106;-81
2023/05/26 04:22:13;;;;;;;20.75;4.18;;;;;;;10.61;54.40;101148.03;5054043;28;20557;-81
2023/05/26 04:24:39;;;;;;;21.00;4.40;;;;;;;10.61;54.19;101153.31;5054177;28;20049;-81
2023/05/26 04:27:07;;;;;;;27.90;5.82;;;;;;;10.61;54.45;101148.03;5053711;28;20053;-81
2023/05/26 04:29:34;;;;;;;20.90;4.85;;;;;;;10.61;54.35;101148.88;5053687;28;20112;-81
2023/05/26 04:32:00;;;;;;;18.80;4.82;;;;;;;10.62;54.57;101149.75;5054277;28;20114;-81
2023/05/26 04:34:28;;;;;;;23.83;5.07;;;;;;;10.63;54.44;101151.47;5053955;28;20506;-81
2023/05/26 04:36:55;;;;;;;21.90;5.60;;;;;;;10.63;54.68;101154.09;5052371;28;20063;-82
2023/05/26 04:39:22;;;;;;;21.48;4.78;;;;;;;10.65;54.64;101152.28;5052123;28;20057;-81
2023/05/26 04:41:49;;;;;;;22.40;4.57;;;;;;;10.66;54.68;101164.53;5052088;28;20052;-81
2023/05/26 04:44:18;;;;;;;26.98;5.32;;;;;;;10.66;54.81;101159.25;5052338;28;20493;-81
2023/05/26 04:46:45;;;;;;;17.45;4.60;;;;;;;10.68;54.91;101160.06;5052308;28;20507;-81
2023/05/26 04:49:12;;;;;;;24.35;5.35;;;;;;;10.68;55.04;101160.94;5052176;28;20052;-81
2023/05/26 04:51:39;;;;;;;19.42;4.63;;;;;;;10.71;54.96;101153.81;5053559;28;20132;-81
2023/05/26 04:54:06;;;;;;;20.15;5.22;;;;;;;10.72;55.13;101164.31;5053345;28;20048;-82
2023/05/26 04:56:33;;;;;;;23.75;5.00;;;;;;;10.76;55.27;101168.53;5053093;28;20560;-81
2023/05/26 04:58:59;;;;;;;25.25;4.45;;;;;;;10.79;55.12;101170.22;5051913;28;20081;-81
2023/05/26 05:01:26;;;;;;;20.58;5.13;;;;;;;10.80;55.31;101170.16;5052121;28;20045;-81
2023/05/26 05:03:53;;;;;;;23.73;4.72;;;;;;;10.84;55.33;101168.28;5053365;28;20049;-81
2023/05/26 05:06:19;;;;;;;19.63;4.57;;;;;;;10.87;55.30;101176.06;5053320;28;20053;-81
2023/05/26 05:08:46;;;;;;;23.98;5.05;;;;;;;10.90;55.25;101170.69;5060642;28;20099;-81
2023/05/26 05:11:12;;;;;;;24.23;5.22;;;;;;;10.93;55.43;101170.59;5067425;28;20490;-81
2023/05/26 05:13:39;;;;;;;16.70;4.50;;;;;;;10.97;55.34;101173.09;5053300;28;20053;-81
2023/05/26 05:16:06;;;;;;;27.67;5.68;;;;;;;11.00;55.63;101175.63;5053176;28;20533;-81
2023/05/26 05:18:32;;;;;;;23.27;5.05;;;;;;;11.04;55.64;101179.88;5052653;28;20048;-82
2023/05/26 05:20:59;;;;;;;24.65;5.15;;;;;;;11.07;55.72;101183.25;5052552;28;20049;-81
2023/05/26 05:23:26;;;;;;;21.50;5.28;;;;;;;11.10;55.77;101186.72;5032657;28;20045;-81
2023/05/26 05:25:52;;;;;;;19.33;4.60;;;;;;;11.14;55.76;101185.69;5032764;28;20057;-80
2023/05/26 05:28:19;;;;;;;21.80;4.90;;;;;;;11.17;55.84;101193.47;5032872;28;20494;-81
2023/05/26 05:30:46;;;;;;;26.80;5.10;;;;;;;11.20;55.79;101202.13;5032919;28;20045;-81
2023/05/26 05:33:13;;;;;;;25.30;5.18;;;;;;;11.23;55.97;101201.16;5047468;28;20044;-80
2023/05/26 05:35:39;;;;;;;32.13;6.22;;;;;;;11.26;55.97;101200.19;5052068;28;20070;-81
2023/05/26 05:38:06;;;;;;;26.40;5.10;;;;;;;11.29;55.80;101205.34;5052450;28;20057;-81
2023/05/26 05:40:33;;;;;;;24.83;4.95;;;;;;;11.32;55.90;101203.47;5052652;28;20052;-81
2023/05/26 05:43:00;;;;;;;23.55;5.13;;;;;;;11.36;55.86;101209.47;5051041;28;20049;-80
2023/05/26 05:45:27;;;;;;;27.05;4.90;;;;;;;11.39;56.16;101205.84;5052584;28;20049;-81
2023/05/26 05:47:54;;;;;;;25.02;5.38;;;;;;;11.42;56.05;101203.97;5052349;28;20099;-81
2023/05/26 05:50:20;;;;;;;24.27;5.70;;;;;;;11.46;55.90;101207.34;5052644;28;20083;-81
2023/05/26 05:52:47;;;;;;;23.83;5.07;;;;;;;11.49;55.95;101211.66;5052062;28;20448;-81
2023/05/26 05:55:14;;;;;;;27.60;5.43;;;;;;;11.53;55.90;101218.53;5052076;28;20226;-81
2023/05/26 05:57:41;;;;;;;21.90;5.20;;;;;;;11.56;56.00;101215.78;5052388;28;20057;-81
2023/05/26 06:00:09;;;;;;;19.52;4.70;;;;;;;11.59;56.19;101215.69;5052587;28;20401;-81
2023/05/26 06:02:36;;;;;;;28.08;5.15;;;;;;;11.63;56.09;101221.69;5050709;28;20547;-81
2023/05/26 06:05:04;;;;;;;24.70;6.13;;;;;;;11.67;56.20;101215.38;5051810;28;20041;-81
2023/05/26 06:07:30;;;;;;;30.90;5.75;;;;;;;11.72;56.17;101219.56;5051658;28;20045;-81
2023/05/26 06:09:57;;;;;;;22.40;5.13;;;;;;;11.76;56.18;101225.56;5051025;28;20144;-81
2023/05/26 06:12:24;;;;;;;28.08;5.97;;;;;;;11.82;56.18;101230.59;5052223;28;20064;-81
2023/05/26 06:14:50;;;;;;;31.10;5.88;;;;;;;11.87;56.44;101233.09;5051808;28;20083;-81
2023/05/26 06:17:17;;;;;;;22.20;5.22;;;;;;;11.94;56.56;101236.34;5051709;28;20076;-81
2023/05/26 06:19:44;;;;;;;27.58;5.63;;;;;;;12.01;56.19;101229.91;5051198;28;20106;-82
2023/05/26 06:22:10;;;;;;;25.63;5.75;;;;;;;12.07;56.46;101234.13;5050820;28;20110;-83
2023/05/26 06:24:37;;;;;;;26.73;6.55;;;;;;;12.16;56.61;101238.16;5049468;28;20079;-83
2023/05/26 06:27:04;;;;;;;26.83;6.63;;;;;;;12.25;56.59;101240.44;5049984;28;20095;-83
2023/05/26 06:29:31;;;;;;;22.40;5.80;;;;;;;12.34;56.52;101242.69;5051840;28;20049;-83
2023/05/26 06:31:57;;;;;;;29.13;5.88;;;;;;;12.45;56.51;101234.34;5051635;28;20056;-82
2023/05/26 06:34:24;;;;;;;20.20;5.97;;;;;;;12.56;56.37;101235.69;5050359;28;20049;-82
2023/05/26 06:36:51;;;;;;;27.08;7.10;;;;;;;12.66;56.22;101239.66;5051045;28;20436;-82
2023/05/26 06:39:17;;;;;;;28.50;6.38;;;;;;;12.75;56.19;101233.13;5051682;28;20048;-83
2023/05/26 06:41:44;;;;;;;26.48;6.13;;;;;;;12.87;56.39;101235.22;5051676;28;20431;-83
2023/05/26 06:44:11;;;;;;;25.83;5.80;;;;;;;12.97;55.75;101242.78;5051376;28;20140;-84
2023/05/26 06:46:37;;;;;;;25.63;6.95;;;;;;;13.05;55.34;101239.81;5051176;28;20053;-84
2023/05/26 06:49:04;;;;;;;23.45;5.90;;;;;;;13.12;55.40;101247.38;5051332;28;20061;-84
2023/05/26 06:51:31;;;;;;;31.45;6.32;;;;;;;13.19;55.38;101250.63;5051480;28;20106;-84
2023/05/26 06:53:57;;;;;;;23.63;5.97;;;;;;;13.26;55.17;101246.78;5051292;28;20052;-82
2023/05/26 06:56:26;;;;;;;19.98;6.07;;;;;;;13.34;55.08;101249.09;5051097;28;20080;-84
2023/05/26 06:58:53;;;;;;;26.58;6.00;;;;;;;13.40;54.93;101242.66;5051394;28;20578;-84
2023/05/26 07:01:19;;;;;;;20.38;5.65;;;;;;;13.50;54.81;101261.66;5051098;28;20111;-85
2023/05/26 07:03:46;;;;;;;26.40;6.63;;;;;;;13.57;54.68;101252.50;5049816;28;20490;-84
2023/05/26 07:06:13;;;;;;;26.45;5.88;;;;;;;13.65;54.77;101245.06;5050661;28;20084;-85
2023/05/26 07:08:39;;;;;;;25.52;6.13;;;;;;;13.74;54.27;101250.88;5049856;28;20080;-84
2023/05/26 07:11:06;;;;;;;22.10;6.55;;;;;;;13.84;54.26;101257.47;5051050;28;20052;-85
2023/05/26 07:13:33;;;;;;;28.40;7.05;;;;;;;13.92;54.06;101263.28;5050913;28;20048;-84
2023/05/26 07:16:00;;;;;;;29.02;6.18;;;;;;;14.01;53.79;101261.09;5050474;28;20052;-82
2023/05/26 07:18:26;;;;;;;20.73;5.22;;;;;;;14.06;53.05;101259.13;5050677;28;20060;-82
2023/05/26 07:20:53;;;;;;;28.27;6.03;;;;;;;14.11;52.64;101265.03;5049837;28;20098;-82
2023/05/26 07:23:20;;;;;;;28.70;6.68;;;;;;;14.12;52.48;101263.22;5049458;28;20099;-84
2023/05/26 07:25:47;;;;;;;22.77;6.07;;;;;;;14.11;52.37;101270.34;5050409;28;20044;-84
2023/05/26 07:28:13;;;;;;;22.33;6.22;;;;;;;14.12;52.63;101263.22;5048910;28;20055;-83
2023/05/26 07:30:40;;;;;;;30.27;5.68;;;;;;;14.12;52.42;101266.75;5050278;28;20088;-85
2023/05/26 07:33:06;;;;;;;25.38;6.43;;;;;;;14.13;52.77;101273.75;5050390;28;20558;-83
2023/05/26 07:35:33;;;;;;;24.50;6.60;;;;;;;14.17;52.58;101267.38;5050540;28;20049;-83
2023/05/26 07:38:00;;;;;;;19.38;5.22;;;;;;;14.22;52.70;101274.25;5030393;28;20111;-83
2023/05/26 07:40:29;;;;;;;29.58;6.47;;;;;;;14.27;52.57;101272.22;5030742;28;20138;-83
2023/05/26 07:42:55;;;;;;;28.33;6.10;;;;;;;14.34;52.49;101278.97;5030524;28;20052;-84
2023/05/26 07:45:22;;;;;;;22.77;5.82;;;;;;;14.40;52.55;101276.03;5029011;28;20461;-83
2023/05/26 07:47:49;;;;;;;32.08;7.10;;;;;;;14.45;52.24;101281.09;5046683;28;20056;-83
2023/05/26 07:50:16;;;;;;;25.15;7.25;;;;;;;14.50;51.77;101272.91;5050401;28;20094;-84
2023/05/26 07:52:42;;;;;;;21.20;5.68;;;;;;;14.53;51.36;101265.66;5050189;28;20048;-82
2023/05/26 07:55:09;;;;;;;16.35;5.25;;;;;;;14.54;50.96;101272.69;5050217;28;20070;-84
2023/05/26 07:57:36;;;;;;;26.20;6.03;;;;;;;14.55;51.14;101274.38;5050092;28;20156;-84
2023/05/26 08:00:03;;;;;;;28.15;6.97;;;;;;;14.57;51.49;101279.63;5050228;28;20140;-84
2023/05/26 08:02:30;;;;;;;25.95;5.95;;;;;;;14.61;51.92;101267.94;5050570;28;20053;-84
2023/05/26 08:04:56;;;;;;;29.20;6.18;;;;;;;14.69;51.80;101272.88;5050056;28;20588;-84
2023/05/26 08:07:23;;;;;;;17.88;5.18;;;;;;;14.78;51.43;101277.75;5049925;28;20467;-83
2023/05/26 08:09:52;;;;;;;24.67;5.32;;;;;;;14.85;51.28;101278.28;5050365;28;20064;-83
2023/05/26 08:12:18;;;;;;;25.45;5.70;;;;;;;14.93;50.48;101276.09;5048835;28;20056;-84
2023/05/26 08:14:45;;;;;;;21.58;5.68;;;;;;;14.98;50.89;101276.72;5050409;28;20056;-84
2023/05/26 08:17:12;;;;;;;23.83;6.60;;;;;;;15.04;50.78;101274.69;5049916;28;20045;-84
2023/05/26 08:19:38;;;;;;;26.25;6.63;;;;;;;15.10;50.66;101280.53;5050101;28;20131;-83
2023/05/26 08:22:05;;;;;;;21.38;6.70;;;;;;;15.16;50.71;101281.13;5049954;28;20431;-83
2023/05/26 08:24:32;;;;;;;22.30;6.05;;;;;;;15.20;50.59;101272.97;5050177;28;20490;-84
2023/05/26 08:26:58;;;;;;;24.30;6.07;;;;;;;15.27;50.49;101272.63;5048435;28;20506;-83
2023/05/26 08:29:25;;;;;;;20.25;5.80;;;;;;;15.33;50.93;101273.16;5050036;28;20053;-83
2023/05/26 08:31:51;;;;;;;21.73;6.05;;;;;;;15.41;50.67;101264.81;5049973;28;20110;-83
2023/05/26 08:34:18;;;;;;;29.80;6.80;;;;;;;15.53;50.87;101273.03;5048754;28;20796;-84
2023/05/26 08:36:46;;;;;;;25.25;5.60;;;;;;;15.61;50.55;101266.38;5049735;28;20128;-83
2023/05/26 08:39:13;;;;;;;23.58;6.43;;;;;;;15.71;50.31;101268.53;5049691;28;20083;-83
2023/05/26 08:41:49;;;;;;;17.90;6.28;;;;;;;15.75;49.83;101270.09;5080405;22;20057;-79
2023/05/26 08:44:17;;;;;;;20.85;6.15;;;;;;;15.86;49.79;101272.16;5049625;28;20049;-79
2023/05/26 08:46:45;;;;;;;17.23;5.13;;;;;;;15.92;49.85;101270.97;5049811;28;20078;-79
2023/05/26 08:49:19;;;;;;;16.98;5.35;;;;;;;15.97;49.38;101271.59;5049662;28;20045;-78
2023/05/26 08:51:58;;;;;;;21.60;5.57;;;;;;;16.01;49.33;101268.66;5049490;28;20041;-79
2023/05/26 08:54:25;;;;;;;23.75;5.57;;;;;;;16.12;49.58;101265.41;5049510;28;20084;-79
2023/05/26 08:56:52;;;;;;;17.10;4.95;;;;;;;16.20;49.71;101262.34;5049561;28;20053;-79
2023/05/26 08:59:19;;;;;;;21.40;5.32;;;;;;;16.29;49.78;101271.56;5053304;28;20053;-79
2023/05/26 09:01:46;;;;;;;18.95;5.50;;;;;;;16.38;49.83;101262.22;5053467;28;20130;-79
2023/05/26 09:04:13;;;;;;;24.70;5.88;;;;;;;16.51;49.86;101265.03;5053428;28;20057;-79
2023/05/26 09:06:45;;;;;;;23.38;6.05;;;;;;;16.61;49.08;101270.66;5051755;28;20490;-79
2023/05/26 09:09:29;;;;;;;17.45;5.15;;;;;;;16.73;49.58;101264.63;5053409;28;20139;-79
2023/05/26 09:11:56;;;;;;;25.67;6.95;;;;;;;16.83;48.90;101258.75;5053314;28;20045;-79
2023/05/26 09:14:23;;;;;;;22.88;6.45;;;;;;;16.90;48.93;101263.63;5053256;28;20087;-79
2023/05/26 09:16:50;;;;;;;24.77;5.03;;;;;;;16.97;48.49;101268.59;5051821;28;20052;-79
2023/05/26 09:19:18;;;;;;;23.77;5.57;;;;;;;17.04;48.55;101261.94;5053100;28;20052;-79
2023/05/26 09:21:49;;;;;;;23.23;6.00;;;;;;;17.13;48.31;101256.09;5052649;28;20048;-79
2023/05/26 09:24:18;;;;;;;20.00;5.60;;;;;;;17.24;48.49;101267.88;5053208;28;20056;-80
2023/05/26 09:26:46;;;;;;;23.23;5.47;;;;;;;17.34;48.44;101257.53;5052706;28;20049;-80
2023/05/26 09:29:14;;;;;;;20.13;5.70;;;;;;;17.44;48.21;101269.31;5053211;28;20398;-79
2023/05/26 09:31:43;;;;;;;19.90;5.10;;;;;;;17.54;48.66;101265.13;5052674;28;20099;-79
2023/05/26 09:34:11;;;;;;;20.15;5.93;;;;;;;17.64;48.24;101260.09;5052697;28;20056;-79
2023/05/26 09:36:39;;;;;;;21.08;5.82;;;;;;;17.74;47.72;101264.81;5052619;28;20474;-79
2023/05/26 09:39:11;;;;;;;16.38;4.85;;;;;;;17.81;47.20;101261.69;5052838;28;20065;-79
2023/05/26 09:41:38;;;;;;;25.88;5.47;;;;;;;17.89;47.51;101268.31;5052666;28;20049;-79
2023/05/26 09:44:19;;;;;;;18.15;4.93;;;;;;;17.95;47.96;101273.28;5051083;28;20045;-80
2023/05/26 09:46:46;;;;;;;20.63;5.75;;;;;;;18.06;47.44;101273.41;5052127;28;20547;-79
2023/05/26 09:49:15;;;;;;;25.63;6.03;;;;;;;18.15;47.35;101273.81;5052722;28;20045;-80
2023/05/26 09:51:43;;;;;;;17.13;4.82;;;;;;;18.23;47.07;101266.19;5052376;28;20486;-79
2023/05/26 09:54:17;;;;;;;21.83;4.97;;;;;;;18.30;47.11;101270.16;5052270;28;20049;-79
2023/05/26 09:56:52;;;;;;;16.92;4.95;;;;;;;18.33;46.56;101269.09;5052028;28;20056;-80
2023/05/26 09:59:23;;;;;;;20.67;5.30;;;;;;;18.44;46.02;101279.06;5052274;28;20052;-79
2023/05/26 10:01:51;;;;;;;20.73;5.20;;;;;;;18.51;46.05;101274.16;5052277;28;20506;-79
2023/05/26 10:04:19;;;;;;;18.42;4.78;;;;;;;18.58;46.36;101268.31;5051889;28;20057;-79
2023/05/26 10:06:49;;;;;;;26.33;5.82;;;;;;;18.65;45.98;101275.94;5051974;28;20496;-79
2023/05/26 10:09:20;;;;;;;15.75;4.78;;;;;;;18.74;46.07;101264.63;5052029;28;20141;-79
2023/05/26 10:11:49;;;;;;;16.27;5.13;;;;;;;18.82;46.24;101272.97;5052105;28;20405;-79
2023/05/26 10:14:17;;;;;;;19.80;4.95;;;;;;;18.88;45.35;101264.53;5051724;28;20132;-79
2023/05/26 10:16:44;;;;;;;18.60;5.53;;;;;;;18.95;45.21;101264.13;5051686;28;20072;-79
2023/05/26 10:19:11;;;;;;;12.98;4.75;;;;;;;19.01;45.73;101271.72;5051867;28;20056;-79
2023/05/26 10:21:45;;;;;;;30.60;6.15;;;;;;;19.07;45.68;101259.78;5051920;28;20119;-79
2023/05/26 10:24:12;;;;;;;23.13;6.03;;;;;;;19.14;45.35;101267.25;5051624;28;20071;-79
2023/05/26 10:26:53;;;;;;;20.83;6.60;;;;;;;19.22;44.84;101258.72;5050152;28;20640;-79
2023/05/26 10:29:28;;;;;;;17.67;5.80;;;;;;;19.34;44.90;101266.84;5050561;28;20552;-79
2023/05/26 10:31:55;;;;;;;21.70;5.78;;;;;;;19.47;45.30;101261.50;5051756;28;20052;-79
2023/05/26 10:34:39;;;;;;;13.82;4.28;;;;;;;19.52;44.74;101259.34;5051333;28;20053;-79
2023/05/26 10:37:14;;;;;;;17.13;4.68;;;;;;;19.69;44.87;101249.28;5051589;28;20461;-79
2023/05/26 10:39:41;;;;;;;17.90;5.72;;;;;;;19.87;45.65;101249.75;5050484;28;20114;-79
2023/05/26 10:42:19;;;;;;;18.13;5.10;;;;;;;20.07;45.79;101248.31;5050116;28;20505;-79
2023/05/26 10:44:48;;;;;;;16.15;5.38;;;;;;;20.40;45.85;101254.81;5051202;28;20061;-80
2023/05/26 10:47:17;;;;;;;14.75;4.47;;;;;;;20.77;45.88;101250.28;5051147;28;20059;-79
2023/05/26 10:49:58;;;;;;;19.48;5.30;;;;;;;21.21;43.78;101247.84;5050273;28;20048;-79
2023/05/26 10:52:26;;;;;;;18.73;5.05;;;;;;;21.76;44.11;101241.78;5051380;28;20131;-79
2023/05/26 10:54:53;;;;;;;21.80;6.10;;;;;;;22.25;43.85;101247.59;5050906;28;20069;-79
2023/05/26 10:57:33;;;;;;;15.73;5.32;;;;;;;22.74;44.09;101236.44;5051092;28;20044;-79
2023/05/26 11:00:25;;;;;;;15.80;4.72;;;;;;;23.29;42.36;101246.06;5051668;28;20111;-79
2023/05/26 11:02:52;;;;;;;14.50;4.47;;;;;;;23.86;42.63;101238.47;5051422;28;20076;-80
2023/05/26 11:05:32;;;;;;;13.50;5.25;;;;;;;24.29;40.91;101237.28;5050750;28;20132;-79
2023/05/26 11:07:59;;;;;;;10.77;4.47;;;;;;;24.75;40.37;101234.00;5050902;28;20053;-80
2023/05/26 11:10:26;;;;;;;13.82;4.85;;;;;;;25.12;40.14;101235.06;5051263;28;20430;-80
2023/05/26 11:12:57;;;;;;;13.88;4.55;;;;;;;25.49;39.12;101225.25;5051266;28;20045;-80
2023/05/26 11:15:25;;;;;;;16.77;4.55;;;;;;;25.85;38.35;101225.34;5050451;28;20057;-80
2023/05/26 11:18:05;;;;;;;17.90;5.38;;;;;;;26.17;37.30;101220.41;5050859;28;20057;-80
2023/05/26 11:20:33;;;;;;;12.90;4.35;;;;;;;26.54;37.72;101214.00;5050613;28;20387;-80
2023/05/26 11:23:00;;;;;;;17.33;5.03;;;;;;;26.86;37.06;101208.97;5050990;28;20390;-80
2023/05/26 11:25:27;;;;;;;12.95;4.20;;;;;;;27.18;36.55;101218.28;5050537;28;20075;-80